sensor_id;sensor_type;location;lat;lon;timestamp;pressure;altitude;pressure_sealevel;temperature;humidity
77795;BME280;66985;45.778;3.090;2023-02-28T00:01:39;97389.14;;;18.58;13.33
77795;BME280;66985;45.778;3.090;2023-02-28T00:04:05;97382.05;;;18.63;13.42
77795;BME280;66985;45.778;3.090;2023-02-28T00:06:30;97380.14;;;18.13;13.52
77795;BME280;66985;45.778;3.090;2023-02-28T00:08:56;97381.68;;;18.30;13.44
77795;BME280;66985;45.778;3.090;2023-02-28T00:11:22;97383.66;;;18.72;13.33
77795;BME280;66985;45.778;3.090;2023-02-28T00:13:47;97378.43;;;18.21;13.47
77795;BME280;66985;45.778;3.090;2023-02-28T00:16:15;97380.44;;;18.62;13.25
77795;BME280;66985;45.778;3.090;2023-02-28T00:18:38;97380.52;;;18.60;13.28
77795;BME280;66985;45.778;3.090;2023-02-28T00:21:04;97376.03;;;18.25;13.42
77795;BME280;66985;45.778;3.090;2023-02-28T00:23:28;97377.68;;;18.10;13.53
77795;BME280;66985;45.778;3.090;2023-02-28T00:25:54;97375.25;;;17.93;13.52
77795;BME280;66985;45.778;3.090;2023-02-28T00:28:20;97376.54;;;18.44;13.47
77795;BME280;66985;45.778;3.090;2023-02-28T00:30:45;97375.42;;;18.08;13.49
77795;BME280;66985;45.778;3.090;2023-02-28T00:33:11;97377.65;;;17.93;13.49
77795;BME280;66985;45.778;3.090;2023-02-28T00:35:36;97376.15;;;18.18;13.49
77795;BME280;66985;45.778;3.090;2023-02-28T00:38:02;97376.88;;;18.40;13.33
77795;BME280;66985;45.778;3.090;2023-02-28T00:40:27;97379.54;;;18.08;13.42
77795;BME280;66985;45.778;3.090;2023-02-28T00:42:52;97376.00;;;18.29;13.40
77795;BME280;66985;45.778;3.090;2023-02-28T00:45:18;97375.89;;;18.45;13.30
77795;BME280;66985;45.778;3.090;2023-02-28T00:47:43;97371.98;;;18.20;13.57
77795;BME280;66985;45.778;3.090;2023-02-28T00:50:10;97374.80;;;18.23;13.41
77795;BME280;66985;45.778;3.090;2023-02-28T00:52:34;97369.53;;;17.61;13.60
77795;BME280;66985;45.778;3.090;2023-02-28T00:55:00;97371.17;;;17.68;13.68
77795;BME280;66985;45.778;3.090;2023-02-28T00:57:25;97371.90;;;17.75;13.64
77795;BME280;66985;45.778;3.090;2023-02-28T00:59:51;97367.83;;;17.72;13.64
77795;BME280;66985;45.778;3.090;2023-02-28T01:02:16;97372.97;;;17.29;13.85
77795;BME280;66985;45.778;3.090;2023-02-28T01:04:41;97372.78;;;17.82;13.70
77795;BME280;66985;45.778;3.090;2023-02-28T01:07:06;97373.47;;;17.79;13.74
77795;BME280;66985;45.778;3.090;2023-02-28T01:09:32;97372.81;;;17.78;13.67
77795;BME280;66985;45.778;3.090;2023-02-28T01:11:57;97365.44;;;17.72;13.54
77795;BME280;66985;45.778;3.090;2023-02-28T01:14:22;97365.55;;;17.53;13.61
77795;BME280;66985;45.778;3.090;2023-02-28T01:16:48;97363.65;;;17.87;13.49
77795;BME280;66985;45.778;3.090;2023-02-28T01:19:13;97363.65;;;18.13;13.34
77795;BME280;66985;45.778;3.090;2023-02-28T01:21:38;97362.40;;;17.79;13.54
77795;BME280;66985;45.778;3.090;2023-02-28T01:24:04;97355.09;;;17.23;13.63
77795;BME280;66985;45.778;3.090;2023-02-28T01:26:29;97351.67;;;17.77;13.44
77795;BME280;66985;45.778;3.090;2023-02-28T01:28:54;97349.21;;;17.98;13.42
77795;BME280;66985;45.778;3.090;2023-02-28T01:31:20;97353.55;;;17.98;13.25
77795;BME280;66985;45.778;3.090;2023-02-28T01:33:45;97358.15;;;17.72;13.39
77795;BME280;66985;45.778;3.090;2023-02-28T01:36:11;97356.50;;;17.97;13.37
77795;BME280;66985;45.778;3.090;2023-02-28T01:38:36;97361.61;;;17.15;13.72
77795;BME280;66985;45.778;3.090;2023-02-28T01:41:02;97363.93;;;18.35;13.25
77795;BME280;66985;45.778;3.090;2023-02-28T01:43:52;97368.04;;;18.16;13.24
77795;BME280;66985;45.778;3.090;2023-02-28T01:45:54;97365.39;;;18.25;13.23
77795;BME280;66985;45.778;3.090;2023-02-28T01:48:21;97362.89;;;18.47;13.08
77795;BME280;66985;45.778;3.090;2023-02-28T01:50:45;97362.12;;;18.75;12.96
77795;BME280;66985;45.778;3.090;2023-02-28T01:53:12;97363.43;;;17.74;13.31
77795;BME280;66985;45.778;3.090;2023-02-28T01:55:34;97363.47;;;18.32;13.06
77795;BME280;66985;45.778;3.090;2023-02-28T01:58:02;97363.84;;;18.12;13.18
77795;BME280;66985;45.778;3.090;2023-02-28T02:00:27;97364.74;;;17.32;13.57
77795;BME280;66985;45.778;3.090;2023-02-28T02:02:53;97366.71;;;17.61;13.30
77795;BME280;66985;45.778;3.090;2023-02-28T02:05:19;97363.37;;;17.61;13.30
77795;BME280;66985;45.778;3.090;2023-02-28T02:07:43;97364.06;;;17.67;13.40
77795;BME280;66985;45.778;3.090;2023-02-28T02:10:14;97362.76;;;17.45;13.28
77795;BME280;66985;45.778;3.090;2023-02-28T02:12:42;97361.04;;;18.02;12.93
77795;BME280;66985;45.778;3.090;2023-02-28T02:15:05;97357.73;;;17.84;12.95
77795;BME280;66985;45.778;3.090;2023-02-28T02:17:29;97358.76;;;18.29;13.00
77795;BME280;66985;45.778;3.090;2023-02-28T02:20:15;97359.09;;;18.14;13.14
77795;BME280;66985;45.778;3.090;2023-02-28T02:22:30;97362.06;;;18.35;12.95
77795;BME280;66985;45.778;3.090;2023-02-28T02:24:55;97364.86;;;18.77;12.77
77795;BME280;66985;45.778;3.090;2023-02-28T02:27:17;97363.80;;;18.88;12.73
77795;BME280;66985;45.778;3.090;2023-02-28T02:29:47;97362.61;;;18.67;12.95
77795;BME280;66985;45.778;3.090;2023-02-28T02:32:20;97362.40;;;18.41;12.99
77795;BME280;66985;45.778;3.090;2023-02-28T02:34:28;97361.28;;;18.68;12.96
77795;BME280;66985;45.778;3.090;2023-02-28T02:36:50;97368.53;;;18.84;13.03
77795;BME280;66985;45.778;3.090;2023-02-28T02:39:17;97367.10;;;19.12;12.89
77795;BME280;66985;45.778;3.090;2023-02-28T02:41:43;97364.88;;;18.96;12.81
77795;BME280;66985;45.778;3.090;2023-02-28T02:44:09;97363.93;;;19.01;12.76
77795;BME280;66985;45.778;3.090;2023-02-28T02:46:32;97364.92;;;18.59;13.00
77795;BME280;66985;45.778;3.090;2023-02-28T02:48:56;97363.60;;;18.95;12.88
77795;BME280;66985;45.778;3.090;2023-02-28T02:51:22;97358.33;;;18.46;13.10
77795;BME280;66985;45.778;3.090;2023-02-28T02:53:48;97359.81;;;18.03;13.27
77795;BME280;66985;45.778;3.090;2023-02-28T02:56:12;97359.27;;;17.94;13.25
77795;BME280;66985;45.778;3.090;2023-02-28T02:58:40;97358.56;;;18.02;13.22
77795;BME280;66985;45.778;3.090;2023-02-28T03:01:04;97358.02;;;19.60;12.51
77795;BME280;66985;45.778;3.090;2023-02-28T03:03:29;97363.64;;;18.97;12.71
77795;BME280;66985;45.778;3.090;2023-02-28T03:05:53;97367.54;;;19.44;12.60
77795;BME280;66985;45.778;3.090;2023-02-28T03:08:19;97366.81;;;18.50;13.08
77795;BME280;66985;45.778;3.090;2023-02-28T03:10:46;97369.06;;;18.07;13.26
77795;BME280;66985;45.778;3.090;2023-02-28T03:15:23;97377.28;;;18.17;13.34
77795;BME280;66985;45.778;3.090;2023-02-28T03:17:59;97370.87;;;18.30;13.22
77795;BME280;66985;45.778;3.090;2023-02-28T03:20:17;97369.57;;;18.20;13.20
77795;BME280;66985;45.778;3.090;2023-02-28T03:22:46;97372.84;;;18.28;13.09
77795;BME280;66985;45.778;3.090;2023-02-28T03:25:07;97370.05;;;18.59;13.02
77795;BME280;66985;45.778;3.090;2023-02-28T03:27:30;97367.27;;;18.80;12.95
77795;BME280;66985;45.778;3.090;2023-02-28T03:30:00;97367.24;;;18.41;13.16
77795;BME280;66985;45.778;3.090;2023-02-28T03:32:24;97369.13;;;18.91;12.90
77795;BME280;66985;45.778;3.090;2023-02-28T03:34:48;97368.37;;;19.06;12.87
77795;BME280;66985;45.778;3.090;2023-02-28T03:37:13;97372.12;;;19.23;12.83
77795;BME280;66985;45.778;3.090;2023-02-28T03:39:38;97373.32;;;19.19;12.85
77795;BME280;66985;45.778;3.090;2023-02-28T03:42:04;97373.67;;;19.14;13.03
77795;BME280;66985;45.778;3.090;2023-02-28T03:44:30;97371.14;;;19.73;12.67
77795;BME280;66985;45.778;3.090;2023-02-28T03:46:55;97375.05;;;19.38;12.92
77795;BME280;66985;45.778;3.090;2023-02-28T03:49:21;97372.62;;;20.00;12.72
77795;BME280;66985;45.778;3.090;2023-02-28T03:51:45;97373.95;;;19.61;12.85
77795;BME280;66985;45.778;3.090;2023-02-28T03:54:11;97372.52;;;19.58;12.84
77795;BME280;66985;45.778;3.090;2023-02-28T03:56:38;97369.63;;;19.44;12.93
77795;BME280;66985;45.778;3.090;2023-02-28T03:59:04;97369.45;;;19.27;12.99
77795;BME280;66985;45.778;3.090;2023-02-28T04:01:29;97367.69;;;19.48;12.78
77795;BME280;66985;45.778;3.090;2023-02-28T04:03:51;97368.04;;;20.15;12.64
77795;BME280;66985;45.778;3.090;2023-02-28T04:06:18;97371.86;;;19.66;12.72
77795;BME280;66985;45.778;3.090;2023-02-28T04:08:42;97369.75;;;19.82;12.73
77795;BME280;66985;45.778;3.090;2023-02-28T04:11:17;97373.43;;;19.96;12.70
77795;BME280;66985;45.778;3.090;2023-02-28T04:13:33;97371.85;;;19.70;12.81
77795;BME280;66985;45.778;3.090;2023-02-28T04:15:58;97377.47;;;20.26;12.53
77795;BME280;66985;45.778;3.090;2023-02-28T04:18:24;97379.34;;;20.28;12.57
77795;BME280;66985;45.778;3.090;2023-02-28T04:20:49;97378.57;;;19.50;12.82
77795;BME280;66985;45.778;3.090;2023-02-28T04:23:15;97380.39;;;20.38;12.47
77795;BME280;66985;45.778;3.090;2023-02-28T04:25:40;97383.77;;;20.15;12.54
77795;BME280;66985;45.778;3.090;2023-02-28T04:28:06;97382.53;;;20.14;12.59
77795;BME280;66985;45.778;3.090;2023-02-28T04:30:31;97380.15;;;19.82;12.67
77795;BME280;66985;45.778;3.090;2023-02-28T04:32:57;97383.54;;;20.28;12.53
77795;BME280;66985;45.778;3.090;2023-02-28T04:35:22;97378.45;;;20.69;12.28
77795;BME280;66985;45.778;3.090;2023-02-28T04:37:48;97385.83;;;20.28;12.50
77795;BME280;66985;45.778;3.090;2023-02-28T04:40:13;97389.47;;;20.41;12.47
77795;BME280;66985;45.778;3.090;2023-02-28T04:42:39;97392.40;;;20.05;12.62
77795;BME280;66985;45.778;3.090;2023-02-28T04:45:06;97394.63;;;20.47;12.43
77795;BME280;66985;45.778;3.090;2023-02-28T04:47:30;97395.36;;;20.11;12.54
77795;BME280;66985;45.778;3.090;2023-02-28T04:49:55;97398.13;;;20.38;12.44
77795;BME280;66985;45.778;3.090;2023-02-28T04:52:21;97396.53;;;20.30;12.37
77795;BME280;66985;45.778;3.090;2023-02-28T04:54:46;97397.06;;;20.51;12.27
77795;BME280;66985;45.778;3.090;2023-02-28T04:57:12;97401.45;;;19.69;12.66
77795;BME280;66985;45.778;3.090;2023-02-28T04:59:37;97400.63;;;19.79;12.73
77795;BME280;66985;45.778;3.090;2023-02-28T05:02:03;97401.27;;;20.49;12.41
77795;BME280;66985;45.778;3.090;2023-02-28T05:04:28;97404.07;;;20.12;12.49
77795;BME280;66985;45.778;3.090;2023-02-28T05:06:54;97405.29;;;19.70;12.71
77795;BME280;66985;45.778;3.090;2023-02-28T05:09:19;97410.02;;;20.00;12.69
77795;BME280;66985;45.778;3.090;2023-02-28T05:11:45;97411.18;;;19.86;12.57
77795;BME280;66985;45.778;3.090;2023-02-28T05:14:11;97415.53;;;19.76;12.66
77795;BME280;66985;45.778;3.090;2023-02-28T05:16:36;97421.87;;;19.32;12.82
77795;BME280;66985;45.778;3.090;2023-02-28T05:19:01;97425.24;;;19.40;12.77
77795;BME280;66985;45.778;3.090;2023-02-28T05:21:29;97424.41;;;19.73;12.60
77795;BME280;66985;45.778;3.090;2023-02-28T05:23:53;97427.91;;;19.55;12.70
77795;BME280;66985;45.778;3.090;2023-02-28T05:26:18;97428.60;;;19.48;12.74
77795;BME280;66985;45.778;3.090;2023-02-28T05:28:43;97431.73;;;19.46;12.74
77795;BME280;66985;45.778;3.090;2023-02-28T05:31:10;97432.55;;;19.82;12.50
77795;BME280;66985;45.778;3.090;2023-02-28T05:33:34;97435.29;;;19.77;12.59
77795;BME280;66985;45.778;3.090;2023-02-28T05:36:00;97432.94;;;20.14;12.55
77795;BME280;66985;45.778;3.090;2023-02-28T05:38:25;97433.42;;;20.12;12.53
77795;BME280;66985;45.778;3.090;2023-02-28T05:40:51;97436.65;;;19.86;12.61
77795;BME280;66985;45.778;3.090;2023-02-28T05:43:16;97439.54;;;20.18;12.41
77795;BME280;66985;45.778;3.090;2023-02-28T05:45:42;97439.58;;;20.01;12.48
77795;BME280;66985;45.778;3.090;2023-02-28T05:48:08;97441.54;;;19.63;12.64
77795;BME280;66985;45.778;3.090;2023-02-28T05:50:33;97441.34;;;19.97;12.55
77795;BME280;66985;45.778;3.090;2023-02-28T05:52:58;97442.78;;;20.06;12.51
77795;BME280;66985;45.778;3.090;2023-02-28T05:55:24;97451.08;;;19.36;12.75
77795;BME280;66985;45.778;3.090;2023-02-28T05:57:49;97451.38;;;19.37;12.72
77795;BME280;66985;45.778;3.090;2023-02-28T06:00:16;97450.84;;;19.52;12.76
77795;BME280;66985;45.778;3.090;2023-02-28T06:02:40;97451.73;;;19.89;12.57
77795;BME280;66985;45.778;3.090;2023-02-28T06:05:09;97452.65;;;19.75;12.56
77795;BME280;66985;45.778;3.090;2023-02-28T06:07:31;97448.25;;;19.82;12.49
77795;BME280;66985;45.778;3.090;2023-02-28T06:09:57;97453.16;;;19.77;12.54
77795;BME280;66985;45.778;3.090;2023-02-28T06:12:22;97452.27;;;19.78;12.52
77795;BME280;66985;45.778;3.090;2023-02-28T06:14:47;97452.84;;;20.09;12.38
77795;BME280;66985;45.778;3.090;2023-02-28T06:17:13;97449.62;;;19.49;12.79
77795;BME280;66985;45.778;3.090;2023-02-28T06:19:39;97447.72;;;19.49;12.67
77795;BME280;66985;45.778;3.090;2023-02-28T06:22:04;97445.06;;;19.78;12.51
77795;BME280;66985;45.778;3.090;2023-02-28T06:24:30;97447.44;;;19.36;12.66
77795;BME280;66985;45.778;3.090;2023-02-28T06:26:55;97446.95;;;19.80;12.55
77795;BME280;66985;45.778;3.090;2023-02-28T06:29:20;97443.38;;;19.97;12.45
77795;BME280;66985;45.778;3.090;2023-02-28T06:31:47;97446.20;;;19.98;12.39
77795;BME280;66985;45.778;3.090;2023-02-28T06:34:13;97453.26;;;19.60;12.67
77795;BME280;66985;45.778;3.090;2023-02-28T06:37:44;97453.70;;;20.01;12.46
77795;BME280;66985;45.778;3.090;2023-02-28T06:39:03;97458.20;;;19.80;12.49
77795;BME280;66985;45.778;3.090;2023-02-28T06:41:28;97458.75;;;19.90;12.46
77795;BME280;66985;45.778;3.090;2023-02-28T06:43:54;97458.27;;;20.22;12.30
77795;BME280;66985;45.778;3.090;2023-02-28T06:46:19;97458.36;;;20.01;12.33
77795;BME280;66985;45.778;3.090;2023-02-28T06:48:45;97460.94;;;19.86;12.43
77795;BME280;66985;45.778;3.090;2023-02-28T06:51:13;97460.28;;;19.89;12.48
77795;BME280;66985;45.778;3.090;2023-02-28T06:53:36;97459.60;;;20.15;12.28
77795;BME280;66985;45.778;3.090;2023-02-28T06:56:04;97460.11;;;20.20;12.34
77795;BME280;66985;45.778;3.090;2023-02-28T06:58:27;97461.15;;;20.22;12.26
77795;BME280;66985;45.778;3.090;2023-02-28T07:00:52;97464.33;;;19.90;12.36
77795;BME280;66985;45.778;3.090;2023-02-28T07:03:18;97465.23;;;20.18;12.31
77795;BME280;66985;45.778;3.090;2023-02-28T07:05:43;97466.99;;;19.97;12.44
77795;BME280;66985;45.778;3.090;2023-02-28T07:08:08;97467.60;;;20.37;12.30
77795;BME280;66985;45.778;3.090;2023-02-28T07:10:36;97471.07;;;19.42;12.53
77795;BME280;66985;45.778;3.090;2023-02-28T07:13:00;97469.08;;;20.03;12.64
77795;BME280;66985;45.778;3.090;2023-02-28T07:15:25;97472.40;;;20.57;12.61
77795;BME280;66985;45.778;3.090;2023-02-28T07:17:51;97476.27;;;20.23;12.73
77795;BME280;66985;45.778;3.090;2023-02-28T07:20:17;97479.82;;;20.12;12.98
77795;BME280;66985;45.778;3.090;2023-02-28T07:22:42;97481.69;;;19.91;12.96
77795;BME280;66985;45.778;3.090;2023-02-28T07:25:08;97483.70;;;20.16;12.78
77795;BME280;66985;45.778;3.090;2023-02-28T07:27:32;97489.35;;;20.00;12.93
77795;BME280;66985;45.778;3.090;2023-02-28T07:29:58;97494.62;;;19.42;13.16
77795;BME280;66985;45.778;3.090;2023-02-28T07:32:24;97495.98;;;19.73;12.92
77795;BME280;66985;45.778;3.090;2023-02-28T07:34:49;97501.10;;;19.96;12.78
77795;BME280;66985;45.778;3.090;2023-02-28T07:37:15;97500.48;;;19.88;12.74
77795;BME280;66985;45.778;3.090;2023-02-28T07:39:40;97506.01;;;19.73;12.76
77795;BME280;66985;45.778;3.090;2023-02-28T07:42:06;97505.33;;;19.52;13.00
77795;BME280;66985;45.778;3.090;2023-02-28T07:44:31;97503.47;;;19.64;12.95
77795;BME280;66985;45.778;3.090;2023-02-28T07:46:57;97503.45;;;20.01;11.78
77795;BME280;66985;45.778;3.090;2023-02-28T07:49:22;97504.24;;;11.72;10.54
77795;BME280;66985;45.778;3.090;2023-02-28T07:51:47;97509.52;;;12.09;10.89
77795;BME280;66985;45.778;3.090;2023-02-28T07:54:13;97510.66;;;11.88;11.27
77795;BME280;66985;45.778;3.090;2023-02-28T07:56:39;97508.08;;;13.73;12.08
77795;BME280;66985;45.778;3.090;2023-02-28T07:59:05;97508.40;;;15.99;12.24
77795;BME280;66985;45.778;3.090;2023-02-28T08:01:31;97504.39;;;17.41;11.16
77795;BME280;66985;45.778;3.090;2023-02-28T08:03:56;97500.04;;;19.04;10.46
77795;BME280;66985;45.778;3.090;2023-02-28T08:06:23;97500.98;;;18.28;10.51
77795;BME280;66985;45.778;3.090;2023-02-28T08:08:48;97500.82;;;18.86;10.32
77795;BME280;66985;45.778;3.090;2023-02-28T08:11:13;97501.51;;;18.10;10.74
77795;BME280;66985;45.778;3.090;2023-02-28T08:13:39;97500.83;;;18.81;10.75
77795;BME280;66985;45.778;3.090;2023-02-28T08:16:05;97503.36;;;17.53;11.21
77795;BME280;66985;45.778;3.090;2023-02-28T08:18:30;97500.11;;;18.63;10.84
77795;BME280;66985;45.778;3.090;2023-02-28T08:20:55;97500.51;;;18.21;10.94
77795;BME280;66985;45.778;3.090;2023-02-28T08:23:21;97502.20;;;17.90;11.12
77795;BME280;66985;45.778;3.090;2023-02-28T08:25:53;97503.37;;;17.65;11.23
77795;BME280;66985;45.778;3.090;2023-02-28T08:28:11;97499.47;;;17.69;11.24
77795;BME280;66985;45.778;3.090;2023-02-28T08:30:37;97500.79;;;18.02;11.08
77795;BME280;66985;45.778;3.090;2023-02-28T08:33:03;97503.84;;;18.08;11.37
77795;BME280;66985;45.778;3.090;2023-02-28T08:35:28;97501.98;;;19.14;10.79
77795;BME280;66985;45.778;3.090;2023-02-28T08:37:54;97506.94;;;17.74;11.16
77795;BME280;66985;45.778;3.090;2023-02-28T08:40:20;97506.63;;;18.50;10.66
77795;BME280;66985;45.778;3.090;2023-02-28T08:42:46;97509.41;;;17.26;11.32
77795;BME280;66985;45.778;3.090;2023-02-28T08:45:11;97510.15;;;18.25;11.06
77795;BME280;66985;45.778;3.090;2023-02-28T08:47:36;97516.27;;;17.76;11.35
77795;BME280;66985;45.778;3.090;2023-02-28T08:50:02;97519.43;;;17.61;11.47
77795;BME280;66985;45.778;3.090;2023-02-28T08:52:27;97521.59;;;17.85;11.35
77795;BME280;66985;45.778;3.090;2023-02-28T08:54:52;97516.96;;;17.94;11.48
77795;BME280;66985;45.778;3.090;2023-02-28T08:57:18;97518.75;;;18.22;11.24
77795;BME280;66985;45.778;3.090;2023-02-28T08:59:44;97521.43;;;18.00;11.44
77795;BME280;66985;45.778;3.090;2023-02-28T09:02:10;97522.10;;;18.75;11.15
77795;BME280;66985;45.778;3.090;2023-02-28T09:04:34;97520.69;;;18.52;11.21
77795;BME280;66985;45.778;3.090;2023-02-28T09:07:00;97522.45;;;18.94;11.24
77795;BME280;66985;45.778;3.090;2023-02-28T09:09:26;97525.15;;;18.43;11.53
77795;BME280;66985;45.778;3.090;2023-02-28T09:11:51;97528.19;;;18.22;11.63
77795;BME280;66985;45.778;3.090;2023-02-28T09:14:17;97524.91;;;18.34;11.61
77795;BME280;66985;45.778;3.090;2023-02-28T09:16:43;97526.02;;;18.89;11.43
77795;BME280;66985;45.778;3.090;2023-02-28T09:19:11;97526.98;;;18.69;11.57
77795;BME280;66985;45.778;3.090;2023-02-28T09:21:34;97530.48;;;18.76;11.51
77795;BME280;66985;45.778;3.090;2023-02-28T09:23:59;97528.86;;;18.73;11.51
77795;BME280;66985;45.778;3.090;2023-02-28T09:26:27;97534.63;;;18.16;11.73
77795;BME280;66985;45.778;3.090;2023-02-28T09:28:51;97539.39;;;18.07;11.78
77795;BME280;66985;45.778;3.090;2023-02-28T09:31:17;97539.43;;;18.45;11.73
77795;BME280;66985;45.778;3.090;2023-02-28T09:33:42;97535.04;;;18.70;11.60
77795;BME280;66985;45.778;3.090;2023-02-28T09:36:07;97539.61;;;18.16;11.96
77795;BME280;66985;45.778;3.090;2023-02-28T09:38:33;97538.71;;;18.08;11.98
77795;BME280;66985;45.778;3.090;2023-02-28T09:41:00;97539.69;;;18.11;11.92
77795;BME280;66985;45.778;3.090;2023-02-28T09:43:26;97544.22;;;17.82;12.20
77795;BME280;66985;45.778;3.090;2023-02-28T09:45:54;97545.40;;;18.34;12.11
77795;BME280;66985;45.778;3.090;2023-02-28T09:48:18;97545.31;;;18.05;12.29
77795;BME280;66985;45.778;3.090;2023-02-28T09:50:41;97546.11;;;18.25;11.95
77795;BME280;66985;45.778;3.090;2023-02-28T09:53:15;97549.25;;;18.28;12.08
77795;BME280;66985;45.778;3.090;2023-02-28T09:55:34;97551.41;;;18.43;11.96
77795;BME280;66985;45.778;3.090;2023-02-28T09:57:57;97551.32;;;18.39;12.05
77795;BME280;66985;45.778;3.090;2023-02-28T10:00:25;97555.96;;;18.06;12.12
77795;BME280;66985;45.778;3.090;2023-02-28T10:03:03;97553.11;;;18.31;12.11
77795;BME280;66985;45.778;3.090;2023-02-28T10:05:14;97550.08;;;18.34;12.03
77795;BME280;66985;45.778;3.090;2023-02-28T10:07:50;97549.96;;;18.20;12.14
77795;BME280;66985;45.778;3.090;2023-02-28T10:10:13;97550.61;;;18.67;12.03
77795;BME280;66985;45.778;3.090;2023-02-28T10:10:21;97551.47;;;18.85;12.05
77795;BME280;66985;45.778;3.090;2023-02-28T10:12:44;97554.33;;;18.06;12.27
77795;BME280;66985;45.778;3.090;2023-02-28T10:15:14;97558.86;;;18.33;12.06
77795;BME280;66985;45.778;3.090;2023-02-28T10:17:38;97558.67;;;18.42;12.18
77795;BME280;66985;45.778;3.090;2023-02-28T10:20:00;97558.96;;;18.15;12.14
77795;BME280;66985;45.778;3.090;2023-02-28T10:22:26;97559.98;;;18.52;11.93
77795;BME280;66985;45.778;3.090;2023-02-28T10:24:50;97559.22;;;18.00;12.38
77795;BME280;66985;45.778;3.090;2023-02-28T10:27:16;97562.06;;;18.33;12.24
77795;BME280;66985;45.778;3.090;2023-02-28T10:29:43;97563.86;;;17.99;12.26
77795;BME280;66985;45.778;3.090;2023-02-28T10:32:06;97563.55;;;17.91;12.38
77795;BME280;66985;45.778;3.090;2023-02-28T10:34:31;97568.75;;;18.06;12.28
77795;BME280;66985;45.778;3.090;2023-02-28T10:36:58;97569.62;;;18.05;12.28
77795;BME280;66985;45.778;3.090;2023-02-28T10:39:42;97568.26;;;18.59;12.07
77795;BME280;66985;45.778;3.090;2023-02-28T10:41:48;97567.36;;;18.00;12.48
77795;BME280;66985;45.778;3.090;2023-02-28T10:44:15;97567.11;;;18.57;12.01
77795;BME280;66985;45.778;3.090;2023-02-28T10:46:40;97565.17;;;17.84;12.33
77795;BME280;66985;45.778;3.090;2023-02-28T10:49:07;97561.07;;;18.36;12.33
77795;BME280;66985;45.778;3.090;2023-02-28T10:51:35;97557.25;;;18.15;12.28
77795;BME280;66985;45.778;3.090;2023-02-28T10:53:56;97554.74;;;17.67;12.43
77795;BME280;66985;45.778;3.090;2023-02-28T10:56:22;97554.78;;;18.21;12.27
77795;BME280;66985;45.778;3.090;2023-02-28T10:58:51;97557.65;;;18.58;12.15
77795;BME280;66985;45.778;3.090;2023-02-28T11:01:14;97556.40;;;18.15;12.24
77795;BME280;66985;45.778;3.090;2023-02-28T11:03:38;97554.82;;;18.12;12.35
77795;BME280;66985;45.778;3.090;2023-02-28T11:06:07;97555.01;;;18.20;12.35
77795;BME280;66985;45.778;3.090;2023-02-28T11:08:29;97553.86;;;18.22;12.27
77795;BME280;66985;45.778;3.090;2023-02-28T11:10:57;97553.29;;;18.31;12.26
77795;BME280;66985;45.778;3.090;2023-02-28T11:13:21;97550.52;;;18.13;12.25
77795;BME280;66985;45.778;3.090;2023-02-28T11:15:51;97552.59;;;18.09;12.32
77795;BME280;66985;45.778;3.090;2023-02-28T11:18:22;97551.26;;;18.64;12.13
77795;BME280;66985;45.778;3.090;2023-02-28T11:20:37;97551.93;;;18.70;12.11
77795;BME280;66985;45.778;3.090;2023-02-28T11:23:05;97552.53;;;18.46;12.30
77795;BME280;66985;45.778;3.090;2023-02-28T11:25:30;97554.11;;;18.41;12.27
77795;BME280;66985;45.778;3.090;2023-02-28T11:27:56;97552.71;;;18.38;12.33
77795;BME280;66985;45.778;3.090;2023-02-28T11:30:31;97555.62;;;18.23;12.35
77795;BME280;66985;45.778;3.090;2023-02-28T11:32:49;97553.17;;;18.25;12.33
77795;BME280;66985;45.778;3.090;2023-02-28T11:35:17;97555.98;;;18.35;12.37
77795;BME280;66985;45.778;3.090;2023-02-28T11:37:37;97551.04;;;18.37;12.43
77795;BME280;66985;45.778;3.090;2023-02-28T11:40:02;97548.24;;;18.66;12.12
77795;BME280;66985;45.778;3.090;2023-02-28T11:42:37;97551.69;;;18.91;11.99
77795;BME280;66985;45.778;3.090;2023-02-28T11:45:03;97551.04;;;18.75;12.09
77795;BME280;66985;45.778;3.090;2023-02-28T11:47:27;97547.86;;;18.68;12.23
77795;BME280;66985;45.778;3.090;2023-02-28T11:49:53;97541.58;;;18.55;12.28
77795;BME280;66985;45.778;3.090;2023-02-28T11:52:19;97532.93;;;18.81;12.15
77795;BME280;66985;45.778;3.090;2023-02-28T11:54:49;97530.34;;;18.75;12.12
77795;BME280;66985;45.778;3.090;2023-02-28T11:57:07;97525.07;;;19.32;11.92
77795;BME280;66985;45.778;3.090;2023-02-28T11:59:35;97523.84;;;18.26;12.33
77795;BME280;66985;45.778;3.090;2023-02-28T12:02:13;97517.90;;;18.79;12.05
77795;BME280;66985;45.778;3.090;2023-02-28T12:04:25;97513.20;;;19.34;11.96
77795;BME280;66985;45.778;3.090;2023-02-28T12:06:47;97512.44;;;19.32;12.14
77795;BME280;66985;45.778;3.090;2023-02-28T12:09:19;97515.75;;;18.54;12.46
77795;BME280;66985;45.778;3.090;2023-02-28T12:11:40;97512.48;;;19.30;12.18
77795;BME280;66985;45.778;3.090;2023-02-28T12:14:10;97509.15;;;19.09;12.37
77795;BME280;66985;45.778;3.090;2023-02-28T12:17:04;97507.28;;;19.75;12.24
77795;BME280;66985;45.778;3.090;2023-02-28T12:19:00;97504.23;;;19.07;12.42
77795;BME280;66985;45.778;3.090;2023-02-28T12:21:20;97506.76;;;19.50;12.20
77795;BME280;66985;45.778;3.090;2023-02-28T12:23:55;97505.90;;;19.44;12.30
77795;BME280;66985;45.778;3.090;2023-02-28T12:26:12;97507.41;;;19.05;12.43
77795;BME280;66985;45.778;3.090;2023-02-28T12:28:34;97499.26;;;18.96;12.59
77795;BME280;66985;45.778;3.090;2023-02-28T12:30:59;97500.19;;;18.81;12.64
77795;BME280;66985;45.778;3.090;2023-02-28T12:33:25;97495.50;;;18.86;12.58
77795;BME280;66985;45.778;3.090;2023-02-28T12:35:51;97491.31;;;18.83;12.64
77795;BME280;66985;45.778;3.090;2023-02-28T12:38:15;97486.83;;;18.94;12.62
77795;BME280;66985;45.778;3.090;2023-02-28T12:40:44;97482.65;;;19.45;12.40
77795;BME280;66985;45.778;3.090;2023-02-28T12:43:07;97482.10;;;19.29;12.48
77795;BME280;66985;45.778;3.090;2023-02-28T12:45:39;97486.14;;;19.51;12.44
77795;BME280;66985;45.778;3.090;2023-02-28T12:47:58;97484.63;;;18.54;12.84
77795;BME280;66985;45.778;3.090;2023-02-28T12:50:22;97479.49;;;18.25;13.00